createdAt,value
2023-05-11T00:00:13.060Z,10.77
2023-05-11T00:02:40.270Z,10.62
2023-05-11T00:05:07.379Z,10.69
2023-05-11T00:07:34.323Z,10.60
2023-05-11T00:10:01.264Z,10.74
2023-05-11T00:12:27.894Z,10.71
2023-05-11T00:14:54.474Z,10.67
2023-05-11T00:17:21.196Z,10.69
2023-05-11T00:19:47.870Z,10.60
2023-05-11T00:22:14.844Z,10.59
2023-05-11T00:24:41.393Z,10.56
2023-05-11T00:27:08.112Z,10.56
2023-05-11T00:29:34.831Z,10.58
2023-05-11T00:32:01.458Z,10.62
2023-05-11T00:34:28.391Z,10.55
2023-05-11T00:36:55.015Z,10.64
2023-05-11T00:39:21.900Z,10.63
2023-05-11T00:41:48.558Z,10.56
2023-05-11T00:44:15.516Z,10.55
2023-05-11T00:46:43.090Z,10.57
2023-05-11T00:49:10.508Z,10.50
2023-05-11T00:51:37.543Z,10.50
2023-05-11T00:54:04.301Z,10.50
2023-05-11T00:56:30.918Z,10.53
2023-05-11T00:58:57.875Z,10.62
2023-05-11T01:01:24.535Z,10.52
2023-05-11T01:03:51.191Z,10.50
2023-05-11T01:06:53.996Z,10.50
2023-05-11T01:09:39.147Z,10.49
2023-05-11T01:12:11.731Z,10.44
2023-05-11T01:14:44.745Z,10.43
2023-05-11T01:17:30.577Z,10.52
2023-05-11T01:20:07.653Z,10.43
2023-05-11T01:22:42.448Z,10.47
2023-05-11T01:25:27.484Z,10.41
2023-05-11T01:28:15.647Z,10.36
2023-05-11T01:30:52.349Z,10.38
2023-05-11T01:33:24.774Z,10.43
2023-05-11T01:35:56.170Z,10.46
2023-05-11T01:38:25.434Z,10.37
2023-05-11T01:40:56.743Z,10.34
2023-05-11T01:43:26.087Z,10.35
2023-05-11T01:45:55.951Z,10.30
2023-05-11T01:48:29.433Z,10.32
2023-05-11T01:51:01.472Z,10.23
2023-05-11T01:53:34.751Z,10.36
2023-05-11T01:56:04.370Z,10.23
2023-05-11T01:58:34.076Z,10.30
2023-05-11T02:01:03.812Z,10.24
2023-05-11T02:03:33.120Z,10.26
2023-05-11T02:06:03.312Z,10.16
2023-05-11T02:08:32.332Z,10.15
2023-05-11T02:11:01.649Z,10.21
2023-05-11T02:13:30.004Z,10.26
2023-05-11T02:15:58.863Z,10.18
2023-05-11T02:18:25.559Z,10.09
2023-05-11T02:20:53.216Z,10.09
2023-05-11T02:23:21.595Z,10.11
2023-05-11T02:25:49.570Z,10.16
2023-05-11T02:28:17.254Z,10.05
2023-05-11T02:30:50.549Z,10.14
2023-05-11T02:33:22.656Z,10.07
2023-05-11T02:35:50.433Z,10.05
2023-05-11T02:38:18.868Z,10.05
2023-05-11T02:40:55.499Z,10.11
2023-05-11T02:43:25.691Z,10.07
2023-05-11T02:45:56.799Z,10.09
2023-05-11T02:48:29.378Z,10.07
2023-05-11T02:50:57.479Z,10.06
2023-05-11T02:53:27.756Z,10.04
2023-05-11T02:55:57.929Z,10.06
2023-05-11T02:58:25.007Z,10.11
2023-05-11T03:00:51.856Z,10.16
2023-05-11T03:03:18.911Z,10.02
2023-05-11T03:05:45.841Z,10.15
2023-05-11T03:08:12.575Z,10.21
2023-05-11T03:10:40.286Z,10.24
2023-05-11T03:13:07.916Z,10.21
2023-05-11T03:15:36.275Z,10.19
2023-05-11T03:18:04.984Z,10.29
2023-05-11T03:20:33.650Z,10.14
2023-05-11T03:23:01.389Z,10.21
2023-05-11T03:25:29.373Z,10.26
2023-05-11T03:27:59.150Z,10.23
2023-05-11T03:30:26.706Z,10.39
2023-05-11T03:32:53.333Z,10.28
2023-05-11T03:35:21.835Z,10.37
2023-05-11T03:37:51.454Z,10.31
2023-05-11T03:40:21.641Z,10.41
2023-05-11T03:42:49.070Z,10.29
2023-05-11T03:45:19.435Z,10.36
2023-05-11T03:47:48.140Z,10.19
2023-05-11T03:50:15.716Z,10.28
2023-05-11T03:52:43.043Z,10.35
2023-05-11T03:55:10.388Z,10.41
2023-05-11T03:57:37.141Z,10.25
2023-05-11T04:00:04.243Z,10.39
2023-05-11T04:02:31.303Z,10.32
2023-05-11T04:04:58.020Z,10.49
2023-05-11T04:07:26.716Z,10.47
2023-05-11T04:09:53.943Z,10.36
2023-05-11T04:12:21.531Z,10.39
2023-05-11T04:14:48.120Z,10.38
2023-05-11T04:17:14.736Z,10.54
2023-05-11T04:19:41.327Z,10.46
2023-05-11T04:22:07.907Z,10.46
2023-05-11T04:24:35.285Z,10.49
2023-05-11T04:27:01.856Z,10.61
2023-05-11T04:29:28.454Z,10.53
2023-05-11T04:31:55.084Z,10.58
2023-05-11T04:34:21.952Z,10.73
2023-05-11T04:36:49.810Z,10.92
2023-05-11T04:39:17.113Z,10.73
2023-05-11T04:41:44.346Z,10.85
2023-05-11T04:44:11.073Z,10.88
2023-05-11T04:46:41.027Z,10.75
2023-05-11T04:49:08.660Z,10.77
2023-05-11T04:51:35.260Z,10.89
2023-05-11T04:54:01.774Z,10.74
2023-05-11T04:56:31.399Z,10.68
2023-05-11T04:58:57.952Z,10.75
2023-05-11T05:01:24.532Z,10.81
2023-05-11T05:03:51.316Z,10.75
2023-05-11T05:06:17.950Z,10.61
2023-05-11T05:08:44.643Z,10.48
2023-05-11T05:11:11.338Z,10.63
2023-05-11T05:13:38.289Z,10.62
2023-05-11T05:16:05.713Z,10.59
2023-05-11T05:18:32.549Z,10.57
2023-05-11T05:20:59.352Z,10.53
2023-05-11T05:23:26.264Z,10.63
2023-05-11T05:25:53.194Z,10.56
2023-05-11T05:28:19.772Z,10.61
2023-05-11T05:30:46.449Z,10.62
2023-05-11T05:33:13.160Z,10.67
2023-05-11T05:35:39.852Z,10.74
2023-05-11T05:38:06.443Z,10.73
2023-05-11T05:40:37.466Z,10.78
2023-05-11T05:43:04.110Z,10.69
2023-05-11T05:45:30.683Z,10.74
2023-05-11T05:47:57.329Z,10.86
2023-05-11T05:50:23.969Z,10.79
2023-05-11T05:52:50.496Z,10.94
2023-05-11T05:55:17.343Z,10.89
2023-05-11T05:57:43.960Z,10.86
2023-05-11T06:00:11.481Z,10.85
2023-05-11T06:02:38.088Z,10.89
2023-05-11T06:05:05.105Z,11.00
2023-05-11T06:07:31.801Z,10.97
2023-05-11T06:09:58.351Z,10.96
2023-05-11T06:12:24.972Z,11.10
2023-05-11T06:14:52.027Z,11.09
2023-05-11T06:17:18.668Z,11.02
2023-05-11T06:19:45.628Z,11.15
2023-05-11T06:22:12.287Z,11.08
2023-05-11T06:24:38.848Z,10.97
2023-05-11T06:27:05.457Z,11.26
2023-05-11T06:29:32.523Z,11.03
2023-05-11T06:31:59.240Z,11.13
2023-05-11T06:34:26.169Z,11.22
2023-05-11T06:36:52.919Z,11.18
2023-05-11T06:39:19.515Z,11.16
2023-05-11T06:41:46.268Z,11.23
2023-05-11T06:44:13.282Z,11.07
2023-05-11T06:46:39.867Z,11.20
2023-05-11T06:49:08.837Z,11.11
2023-05-11T06:51:35.558Z,11.24
2023-05-11T06:54:02.223Z,11.46
2023-05-11T06:56:29.838Z,11.26
2023-05-11T06:58:56.433Z,11.34
2023-05-11T07:01:23.299Z,11.49
2023-05-11T07:03:51.380Z,11.42
2023-05-11T07:06:20.029Z,11.42
2023-05-11T07:08:46.625Z,11.61
2023-05-11T07:11:13.514Z,11.21
2023-05-11T07:13:40.164Z,11.39
2023-05-11T07:16:07.046Z,11.34
2023-05-11T07:18:34.146Z,11.31
2023-05-11T07:21:00.728Z,11.51
2023-05-11T07:23:27.345Z,11.51
2023-05-11T07:25:56.013Z,11.61
2023-05-11T07:28:22.654Z,11.64
2023-05-11T07:30:49.386Z,11.37
2023-05-11T07:33:16.019Z,11.54
2023-05-11T07:35:42.589Z,11.50
2023-05-11T07:38:11.977Z,11.56
2023-05-11T07:40:38.569Z,11.63
2023-05-11T07:43:05.196Z,11.43
2023-05-11T07:45:31.856Z,11.42
2023-05-11T07:47:58.644Z,11.56
2023-05-11T07:50:25.498Z,11.60
2023-05-11T07:52:52.320Z,11.73
2023-05-11T07:55:20.635Z,11.83
2023-05-11T07:57:47.533Z,11.57
2023-05-11T08:00:14.626Z,11.66
2023-05-11T08:02:41.233Z,11.69
2023-05-11T08:05:08.635Z,11.72
2023-05-11T08:07:35.187Z,11.88
2023-05-11T08:10:02.313Z,11.85
2023-05-11T08:12:29.036Z,11.77
2023-05-11T08:14:56.950Z,11.79
2023-05-11T08:17:23.615Z,11.75
2023-05-11T08:19:51.192Z,11.79
2023-05-11T08:22:18.065Z,11.74
2023-05-11T08:24:44.997Z,11.66
2023-05-11T08:27:11.590Z,11.85
2023-05-11T08:29:38.364Z,12.02
2023-05-11T08:32:05.167Z,12.04
2023-05-11T08:34:31.877Z,12.00
2023-05-11T08:37:01.839Z,11.95
2023-05-11T08:39:43.732Z,11.61
2023-05-11T08:42:17.645Z,11.65
2023-05-11T08:44:45.390Z,11.48
2023-05-11T08:49:43.224Z,11.55
2023-05-11T08:52:10.961Z,11.48
2023-05-11T08:54:38.255Z,11.36
2023-05-11T08:57:07.180Z,11.48
2023-05-11T08:59:34.553Z,11.66
2023-05-11T09:02:02.488Z,11.78
2023-05-11T09:04:30.550Z,11.80
2023-05-11T09:06:58.325Z,11.99
2023-05-11T09:09:24.937Z,11.92
2023-05-11T09:11:52.066Z,11.60
2023-05-11T09:16:53.168Z,11.79
2023-05-11T09:19:20.651Z,11.39
2023-05-11T09:21:47.732Z,11.70
2023-05-11T09:24:14.372Z,11.65
2023-05-11T09:26:40.927Z,11.94
2023-05-11T09:29:07.559Z,11.97
2023-05-11T09:31:45.329Z,11.64
2023-05-11T09:34:22.257Z,11.66
2023-05-11T09:36:51.438Z,11.45
2023-05-11T09:39:35.200Z,11.79
2023-05-11T09:42:18.784Z,11.66
2023-05-11T09:44:46.764Z,11.48
2023-05-11T09:47:16.573Z,11.77
2023-05-11T09:49:44.995Z,11.88
2023-05-11T09:52:22.136Z,11.88
2023-05-11T09:54:51.537Z,11.89
2023-05-11T09:57:31.860Z,11.80
2023-05-11T10:00:00.111Z,11.56
2023-05-11T10:02:31.941Z,11.88
2023-05-11T10:05:00.793Z,11.93
2023-05-11T10:07:35.340Z,12.20
2023-05-11T10:10:06.156Z,12.27
2023-05-11T10:12:34.303Z,12.36
2023-05-11T10:15:09.399Z,12.06
2023-05-11T10:17:37.247Z,12.04
2023-05-11T10:20:06.264Z,11.83
2023-05-11T10:22:33.160Z,11.91
2023-05-11T10:25:00.544Z,11.72
2023-05-11T10:27:28.915Z,11.75
2023-05-11T10:29:58.545Z,11.63
2023-05-11T10:32:25.615Z,11.66
2023-05-11T10:34:52.342Z,11.48
2023-05-11T10:37:21.429Z,11.63
2023-05-11T10:39:50.424Z,11.74
2023-05-11T10:42:24.321Z,11.79
2023-05-11T10:45:29.821Z,11.81
2023-05-11T10:48:03.101Z,11.64
2023-05-11T10:50:43.279Z,11.55
2023-05-11T10:53:10.011Z,11.66
2023-05-11T10:56:01.622Z,11.68
2023-05-11T10:58:59.996Z,11.62
2023-05-11T11:01:39.860Z,11.79
2023-05-11T11:04:11.977Z,11.80
2023-05-11T11:06:41.087Z,11.82
2023-05-11T11:09:15.901Z,11.87
2023-05-11T11:11:48.176Z,11.69
2023-05-11T11:14:16.422Z,11.76
2023-05-11T11:17:18.446Z,12.07
2023-05-11T11:19:45.073Z,12.09
2023-05-11T11:22:38.744Z,12.17
2023-05-11T11:25:06.640Z,12.25
2023-05-11T11:27:45.370Z,11.99
2023-05-11T11:30:22.761Z,12.14
2023-05-11T11:32:52.231Z,12.29
2023-05-11T11:35:41.512Z,12.34
2023-05-11T11:38:10.907Z,11.99
2023-05-11T11:40:47.214Z,12.08
2023-05-11T11:43:28.531Z,12.12
2023-05-11T11:45:56.630Z,12.29
2023-05-11T11:48:34.684Z,12.12
2023-05-11T11:51:06.797Z,12.22
2023-05-11T11:53:36.549Z,12.29
2023-05-11T11:56:04.644Z,12.45
2023-05-11T11:58:40.309Z,12.37
2023-05-11T12:01:13.437Z,12.27
2023-05-11T12:03:42.021Z,12.59
2023-05-11T12:06:12.340Z,12.41
2023-05-11T12:08:41.222Z,12.32
2023-05-11T12:11:08.152Z,12.32
2023-05-11T12:13:35.963Z,12.19
2023-05-11T12:16:13.262Z,12.43
2023-05-11T12:18:40.904Z,12.33
2023-05-11T12:21:18.722Z,12.33
2023-05-11T12:23:59.392Z,12.34
2023-05-11T12:26:27.658Z,12.45
2023-05-11T12:29:10.246Z,12.52
2023-05-11T12:31:45.126Z,12.36
2023-05-11T12:34:20.186Z,12.21
2023-05-11T12:36:51.600Z,12.17
2023-05-11T12:39:26.674Z,12.33
2023-05-11T12:41:55.734Z,12.25
2023-05-11T12:44:26.823Z,12.05
2023-05-11T12:46:55.060Z,12.40
2023-05-11T12:49:26.642Z,12.19
2023-05-11T12:52:00.158Z,12.12
2023-05-11T12:54:30.002Z,12.08
2023-05-11T12:56:56.724Z,12.13
2023-05-11T12:59:25.008Z,12.20
2023-05-11T13:01:51.797Z,12.20
2023-05-11T13:04:18.921Z,12.20
2023-05-11T13:06:46.021Z,12.36
2023-05-11T13:09:22.161Z,12.22
2023-05-11T13:11:49.024Z,12.35
2023-05-11T13:14:17.328Z,12.43
2023-05-11T13:16:54.351Z,12.36
2023-05-11T13:19:28.963Z,12.31
2023-05-11T13:21:56.640Z,12.39
2023-05-11T13:24:24.061Z,12.25
2023-05-11T13:26:51.481Z,12.27
2023-05-11T13:29:18.575Z,12.26
2023-05-11T13:31:49.841Z,12.25
2023-05-11T13:34:17.175Z,12.40
2023-05-11T13:36:44.113Z,12.36
2023-05-11T13:39:10.898Z,12.14
2023-05-11T13:41:37.615Z,12.12
2023-05-11T13:44:04.728Z,12.50
2023-05-11T13:46:31.606Z,12.45
2023-05-11T13:49:00.423Z,12.62
2023-05-11T13:51:27.776Z,12.62
2023-05-11T13:53:54.644Z,12.29
2023-05-11T13:56:22.289Z,12.39
2023-05-11T13:58:49.358Z,12.15
2023-05-11T14:01:16.580Z,12.40
2023-05-11T14:03:43.325Z,12.45
2023-05-11T14:06:10.069Z,12.39
2023-05-11T14:08:36.680Z,12.45
2023-05-11T14:11:03.464Z,12.43
2023-05-11T14:13:30.071Z,12.43
2023-05-11T14:15:57.260Z,12.46
2023-05-11T14:18:25.184Z,12.62
2023-05-11T14:20:52.002Z,12.62
2023-05-11T14:23:18.592Z,12.42
2023-05-11T14:25:45.298Z,12.47
2023-05-11T14:28:11.930Z,12.37
2023-05-11T14:30:38.544Z,12.27
2023-05-11T14:33:05.861Z,12.37
2023-05-11T14:35:32.510Z,12.32
2023-05-11T14:37:59.131Z,12.40
2023-05-11T14:40:25.686Z,12.28
2023-05-11T14:42:52.490Z,12.24
2023-05-11T14:45:19.306Z,12.32
2023-05-11T14:47:46.295Z,12.35
2023-05-11T14:50:12.866Z,12.26
2023-05-11T14:52:39.441Z,12.29
2023-05-11T14:55:06.678Z,12.29
2023-05-11T14:57:33.351Z,12.33
2023-05-11T15:00:00.625Z,12.42
2023-05-11T15:02:29.004Z,12.35
2023-05-11T15:04:55.698Z,12.30
2023-05-11T15:07:22.492Z,12.36
2023-05-11T15:09:50.872Z,12.38
2023-05-11T15:12:17.375Z,12.37
2023-05-11T15:14:43.995Z,12.40
2023-05-11T15:17:10.662Z,12.47
2023-05-11T15:19:38.508Z,12.29
2023-05-11T15:22:05.969Z,12.33
2023-05-11T15:24:34.027Z,12.25
2023-05-11T15:27:00.779Z,12.41
2023-05-11T15:29:27.318Z,12.32
2023-05-11T15:31:53.917Z,12.30
2023-05-11T15:34:20.771Z,12.14
2023-05-11T15:36:49.025Z,12.24
2023-05-11T15:39:17.714Z,12.19
2023-05-11T15:41:44.353Z,12.21
2023-05-11T15:44:10.934Z,12.21
2023-05-11T15:46:38.683Z,12.23
2023-05-11T15:49:05.294Z,12.09
2023-05-11T15:51:32.403Z,12.16
2023-05-11T15:53:59.022Z,12.16
2023-05-11T15:56:26.512Z,12.10
2023-05-11T15:58:54.385Z,12.03
2023-05-11T16:01:21.324Z,12.00
2023-05-11T16:03:47.996Z,11.89
2023-05-11T16:06:14.706Z,11.86
2023-05-11T16:08:41.768Z,11.87
2023-05-11T16:11:08.426Z,11.89
2023-05-11T16:13:35.103Z,11.99
2023-05-11T16:16:01.704Z,11.92
2023-05-11T16:18:28.730Z,11.95
2023-05-11T16:20:55.348Z,12.02
2023-05-11T16:23:22.045Z,11.99
2023-05-11T16:25:48.614Z,11.97
2023-05-11T16:28:15.184Z,12.01
2023-05-11T16:30:41.778Z,11.89
2023-05-11T16:33:08.405Z,11.80
2023-05-11T16:35:35.082Z,11.79
2023-05-11T16:38:02.642Z,11.79
2023-05-11T16:40:29.141Z,11.59
2023-05-11T16:42:58.695Z,11.57
2023-05-11T16:45:25.470Z,11.66
2023-05-11T16:47:52.290Z,11.68
2023-05-11T16:50:19.153Z,11.68
2023-05-11T16:52:45.848Z,11.67
2023-05-11T16:55:13.890Z,11.57
2023-05-11T16:57:40.598Z,11.73
2023-05-11T17:00:09.168Z,11.71
2023-05-11T17:02:35.810Z,11.73
2023-05-11T17:05:02.540Z,11.80
2023-05-11T17:07:29.111Z,11.83
2023-05-11T17:09:57.386Z,11.87
2023-05-11T17:12:24.323Z,11.75
2023-05-11T17:14:50.953Z,11.83
2023-05-11T17:17:17.731Z,11.71
2023-05-11T17:19:44.492Z,11.74
2023-05-11T17:22:11.336Z,11.82
2023-05-11T17:24:38.139Z,11.82
2023-05-11T17:27:05.081Z,11.57
2023-05-11T17:29:31.996Z,11.44
2023-05-11T17:32:02.010Z,11.42
2023-05-11T17:34:29.847Z,11.47
2023-05-11T17:36:57.163Z,11.50
2023-05-11T17:39:23.848Z,11.41
2023-05-11T17:41:50.383Z,11.54
2023-05-11T17:44:17.147Z,11.46
2023-05-11T17:46:43.763Z,11.50
2023-05-11T17:49:10.469Z,11.49
2023-05-11T17:51:37.698Z,11.32
2023-05-11T17:54:04.292Z,11.31
2023-05-11T17:56:31.582Z,11.23
2023-05-11T17:58:59.709Z,11.18
2023-05-11T18:01:27.836Z,11.08
2023-05-11T18:03:54.504Z,11.08
2023-05-11T18:06:21.223Z,11.08
2023-05-11T18:08:48.794Z,10.98
2023-05-11T18:11:15.678Z,10.97
2023-05-11T18:13:42.277Z,10.96
2023-05-11T18:16:09.246Z,10.84
2023-05-11T18:18:36.922Z,10.89
2023-05-11T18:21:07.683Z,10.85
2023-05-11T18:23:34.528Z,10.80
2023-05-11T18:26:04.697Z,10.80
2023-05-11T18:28:31.541Z,10.77
2023-05-11T18:30:58.078Z,10.77
2023-05-11T18:33:24.814Z,10.78
2023-05-11T18:35:52.253Z,10.83
2023-05-11T18:38:18.860Z,10.83
2023-05-11T18:40:45.544Z,10.69
2023-05-11T18:43:12.390Z,10.70
2023-05-11T18:45:41.031Z,10.64
2023-05-11T18:48:07.885Z,10.65
2023-05-11T18:50:34.647Z,10.70
2023-05-11T18:53:02.279Z,10.67
2023-05-11T18:55:31.099Z,10.65
2023-05-11T18:58:01.676Z,10.64
2023-05-11T19:00:28.560Z,10.67
2023-05-11T19:02:55.260Z,10.67
2023-05-11T19:05:21.988Z,10.65
2023-05-11T19:07:48.550Z,10.66
2023-05-11T19:10:15.229Z,10.66
2023-05-11T19:12:41.813Z,10.66
2023-05-11T19:15:09.132Z,10.69
2023-05-11T19:17:35.721Z,10.66
2023-05-11T19:20:02.810Z,10.60
2023-05-11T19:22:29.583Z,10.60
2023-05-11T19:24:56.163Z,10.58
2023-05-11T19:27:22.751Z,10.60
2023-05-11T19:29:50.749Z,10.56
2023-05-11T19:32:19.338Z,10.54
2023-05-11T19:34:46.899Z,10.46
2023-05-11T19:37:13.551Z,10.45
2023-05-11T19:39:40.196Z,10.46
2023-05-11T19:42:07.148Z,10.50
2023-05-11T19:44:36.611Z,10.46
2023-05-11T19:47:03.345Z,10.49
2023-05-11T19:49:30.149Z,10.46
2023-05-11T19:51:56.823Z,10.48
2023-05-11T19:54:23.949Z,10.51
2023-05-11T19:56:50.554Z,10.51
2023-05-11T19:59:17.364Z,10.43
2023-05-11T20:01:43.947Z,10.49
2023-05-11T20:04:12.835Z,10.51
2023-05-11T20:06:39.924Z,10.46
2023-05-11T20:09:07.551Z,10.53
2023-05-11T20:11:34.315Z,10.45
2023-05-11T20:14:01.172Z,10.55
2023-05-11T20:16:30.913Z,10.51
2023-05-11T20:18:59.614Z,10.58
2023-05-11T20:21:26.524Z,10.61
2023-05-11T20:23:53.061Z,10.61
2023-05-11T20:26:19.693Z,10.60
2023-05-11T20:28:46.277Z,10.60
2023-05-11T20:31:13.037Z,10.66
2023-05-11T20:36:09.552Z,10.67
2023-05-11T20:38:36.215Z,10.72
2023-05-11T20:41:02.799Z,10.68
2023-05-11T20:43:29.659Z,10.59
2023-05-11T20:46:05.330Z,10.64
2023-05-11T20:48:40.362Z,10.68
2023-05-11T20:51:07.872Z,10.69
2023-05-11T20:53:34.599Z,10.65
2023-05-11T20:56:02.815Z,10.69
2023-05-11T20:58:30.996Z,10.66
2023-05-11T21:00:58.023Z,10.69
2023-05-11T21:03:26.794Z,10.70
2023-05-11T21:05:53.923Z,10.67
2023-05-11T21:08:20.860Z,10.70
2023-05-11T21:10:47.403Z,10.62
2023-05-11T21:13:14.050Z,10.60
2023-05-11T21:15:41.350Z,10.59
2023-05-11T21:18:08.873Z,10.72
2023-05-11T21:20:36.202Z,10.74
2023-05-11T21:23:04.004Z,10.67
2023-05-11T21:25:30.950Z,10.62
2023-05-11T21:27:57.804Z,10.57
2023-05-11T21:30:24.420Z,10.60
2023-05-11T21:32:51.099Z,10.56
2023-05-11T21:35:18.059Z,10.58
2023-05-11T21:37:49.745Z,10.58
2023-05-11T21:40:18.267Z,10.54
2023-05-11T21:42:45.325Z,10.52
2023-05-11T21:45:12.483Z,10.62
2023-05-11T21:47:39.361Z,10.53
2023-05-11T21:50:07.997Z,10.66
2023-05-11T21:52:34.900Z,10.62
2023-05-11T21:55:01.992Z,10.53
2023-05-11T21:57:29.032Z,10.56
2023-05-11T21:59:55.606Z,10.54
2023-05-11T22:02:22.820Z,10.50
2023-05-11T22:04:50.046Z,10.61
2023-05-11T22:07:16.670Z,10.64
2023-05-11T22:09:43.923Z,10.61
2023-05-11T22:12:13.591Z,10.59
2023-05-11T22:14:40.871Z,10.56
2023-05-11T22:17:07.461Z,10.55
2023-05-11T22:19:34.350Z,10.65
2023-05-11T22:22:00.946Z,10.57
2023-05-11T22:24:27.612Z,10.59
2023-05-11T22:26:54.431Z,10.55
2023-05-11T22:29:22.131Z,10.56
2023-05-11T22:31:49.596Z,10.57
2023-05-11T22:34:16.367Z,10.50
2023-05-11T22:36:42.914Z,10.47
2023-05-11T22:39:12.467Z,10.48
2023-05-11T22:41:39.297Z,10.36
2023-05-11T22:44:06.024Z,10.41
2023-05-11T22:46:32.752Z,10.39
2023-05-11T22:48:59.377Z,10.44
2023-05-11T22:51:26.213Z,10.44
2023-05-11T22:53:52.968Z,10.40
2023-05-11T22:56:19.996Z,10.43
2023-05-11T22:58:46.564Z,10.46
2023-05-11T23:01:14.276Z,10.29
2023-05-11T23:03:41.232Z,10.37
2023-05-11T23:06:08.067Z,10.33
2023-05-11T23:08:34.689Z,10.33
2023-05-11T23:11:01.386Z,10.35
2023-05-11T23:13:28.280Z,10.39
2023-05-11T23:15:54.950Z,10.39
2023-05-11T23:18:21.638Z,10.44
2023-05-11T23:20:48.352Z,10.36
2023-05-11T23:23:14.885Z,10.35
2023-05-11T23:25:41.749Z,10.30
2023-05-11T23:28:11.707Z,10.31
2023-05-11T23:30:38.472Z,10.28
2023-05-11T23:33:05.127Z,10.35
2023-05-11T23:35:31.696Z,10.33
2023-05-11T23:37:58.712Z,10.32
2023-05-11T23:40:28.629Z,10.36
2023-05-11T23:42:55.233Z,10.31
2023-05-11T23:45:23.490Z,10.41
2023-05-11T23:47:50.375Z,10.47
2023-05-11T23:50:17.314Z,10.35
2023-05-11T23:52:44.358Z,10.38
2023-05-11T23:55:14.132Z,10.35
2023-05-11T23:57:41.743Z,10.39
